createdAt,value
2019-06-15T00:01:41.051Z,20.60
2019-06-15T00:04:07.426Z,20.50
2019-06-15T00:06:33.656Z,20.60
2019-06-15T00:09:00.266Z,20.50
2019-06-15T00:11:26.599Z,20.50
2019-06-15T00:13:53.050Z,20.50
2019-06-15T00:16:19.268Z,20.40
2019-06-15T00:18:45.510Z,20.30
2019-06-15T00:21:11.836Z,20.30
2019-06-15T00:23:38.068Z,20.30
2019-06-15T00:26:04.369Z,20.30
2019-06-15T00:28:30.600Z,20.30
2019-06-15T00:30:56.957Z,20.30
2019-06-15T00:33:23.346Z,20.30
2019-06-15T00:35:49.752Z,20.30
2019-06-15T00:38:15.986Z,20.20
2019-06-15T00:40:42.329Z,20.30
2019-06-15T00:43:08.772Z,20.40
2019-06-15T00:45:35.185Z,20.30
2019-06-15T00:48:01.530Z,20.20
2019-06-15T00:50:27.929Z,20.20
2019-06-15T00:52:54.196Z,20.10
2019-06-15T00:55:20.681Z,20.10
2019-06-15T00:57:46.952Z,20.10
2019-06-15T01:00:13.640Z,20.20
2019-06-15T01:02:39.972Z,20.20
2019-06-15T01:05:06.793Z,20.10
2019-06-15T01:07:33.116Z,20.20
2019-06-15T01:09:59.485Z,20.20
2019-06-15T01:12:25.772Z,20.20
2019-06-15T01:14:52.011Z,20.20
2019-06-15T01:17:18.190Z,20.10
2019-06-15T01:19:44.704Z,20.10
2019-06-15T01:22:11.025Z,20.10
2019-06-15T01:24:37.433Z,20.10
2019-06-15T01:27:03.890Z,20.10
2019-06-15T01:29:30.149Z,20.10
2019-06-15T01:31:56.328Z,20.10
2019-06-15T01:34:22.537Z,20.10
2019-06-15T01:36:48.859Z,20.20
2019-06-15T01:39:15.120Z,20.20
2019-06-15T01:41:41.363Z,20.30
2019-06-15T01:44:07.775Z,20.30
2019-06-15T01:46:34.173Z,20.40
2019-06-15T01:49:00.389Z,20.30
2019-06-15T01:51:26.597Z,20.30
2019-06-15T01:53:52.813Z,20.20
2019-06-15T01:56:19.028Z,20.20
2019-06-15T01:58:45.501Z,20.10
2019-06-15T02:01:11.869Z,20.00
2019-06-15T02:03:38.153Z,20.10
2019-06-15T02:06:04.644Z,20.00
2019-06-15T02:08:30.931Z,20.00
2019-06-15T02:10:57.202Z,20.00
2019-06-15T02:13:23.559Z,20.00
2019-06-15T02:15:49.975Z,19.90
2019-06-15T02:18:16.397Z,20.00
2019-06-15T02:20:42.659Z,20.00
2019-06-15T02:23:08.987Z,20.10
2019-06-15T02:25:36.735Z,20.10
2019-06-15T02:28:03.333Z,20.20
2019-06-15T02:30:31.387Z,20.20
2019-06-15T02:32:58.040Z,20.10
2019-06-15T02:35:25.272Z,20.10
2019-06-15T02:37:51.986Z,20.00
2019-06-15T02:40:18.764Z,20.00
2019-06-15T02:42:45.240Z,20.00
2019-06-15T02:45:11.797Z,19.90
2019-06-15T02:47:38.030Z,19.80
2019-06-15T02:50:06.080Z,19.80
2019-06-15T02:52:32.475Z,19.80
2019-06-15T02:54:58.830Z,19.80
2019-06-15T02:57:25.196Z,19.80
2019-06-15T02:59:51.508Z,19.90
2019-06-15T03:02:17.888Z,19.80
2019-06-15T03:04:44.284Z,19.80
2019-06-15T03:07:11.024Z,19.70
2019-06-15T03:09:37.408Z,19.80
2019-06-15T03:12:04.018Z,19.80
2019-06-15T03:14:30.237Z,19.80
2019-06-15T03:16:56.484Z,19.70
2019-06-15T03:19:22.637Z,19.70
2019-06-15T03:21:48.807Z,19.60
2019-06-15T03:24:15.088Z,19.50
2019-06-15T03:26:41.375Z,19.50
2019-06-15T03:29:07.600Z,19.50
2019-06-15T03:31:33.956Z,19.50
2019-06-15T03:34:00.327Z,19.50
2019-06-15T03:36:26.686Z,19.50
2019-06-15T03:38:52.970Z,19.60
2019-06-15T03:41:19.212Z,19.60
2019-06-15T03:43:45.623Z,19.50
2019-06-15T03:46:11.980Z,19.50
2019-06-15T03:48:38.204Z,19.60
2019-06-15T03:51:04.363Z,19.60
2019-06-15T03:53:30.594Z,19.70
2019-06-15T03:55:56.780Z,19.50
2019-06-15T03:58:23.077Z,19.60
2019-06-15T04:01:02.179Z,19.50
2019-06-15T04:03:28.533Z,19.50
2019-06-15T04:05:54.768Z,19.60
2019-06-15T04:08:20.981Z,19.60
2019-06-15T04:10:47.299Z,19.50
2019-06-15T04:13:13.736Z,19.60
2019-06-15T04:15:40.777Z,19.60
2019-06-15T04:18:07.209Z,19.60
2019-06-15T04:20:33.439Z,19.70
2019-06-15T04:22:59.873Z,19.60
2019-06-15T04:25:26.150Z,19.70
2019-06-15T04:27:52.599Z,19.70
2019-06-15T04:30:18.979Z,19.80
2019-06-15T04:32:45.332Z,19.80
2019-06-15T04:35:13.997Z,19.90
2019-06-15T04:37:40.217Z,19.90
2019-06-15T04:40:06.777Z,19.90
2019-06-15T04:42:33.198Z,19.90
2019-06-15T04:44:59.461Z,20.00
2019-06-15T04:47:25.822Z,20.00
2019-06-15T04:49:52.199Z,20.10
2019-06-15T04:52:18.489Z,20.20
2019-06-15T04:54:44.703Z,20.30
2019-06-15T04:57:10.965Z,20.40
2019-06-15T04:59:37.307Z,20.40
2019-06-15T05:02:03.735Z,20.40
2019-06-15T05:04:29.998Z,20.60
2019-06-15T05:06:56.423Z,20.60
2019-06-15T05:09:22.644Z,20.50
2019-06-15T05:11:48.941Z,20.40
2019-06-15T05:14:15.687Z,20.40
2019-06-15T05:16:41.946Z,20.50
2019-06-15T05:19:09.639Z,20.60
2019-06-15T05:21:36.773Z,20.70
2019-06-15T05:24:08.617Z,20.60
2019-06-15T05:26:37.097Z,20.50
2019-06-15T05:29:04.227Z,20.50
2019-06-15T05:31:31.178Z,20.60
2019-06-15T05:33:58.316Z,20.70
2019-06-15T05:36:24.770Z,20.70
2019-06-15T05:38:51.193Z,20.80
2019-06-15T05:41:17.460Z,20.90
2019-06-15T05:43:43.860Z,21.10
2019-06-15T05:46:10.192Z,21.20
2019-06-15T05:48:37.161Z,21.30
2019-06-15T05:51:03.506Z,21.50
2019-06-15T05:53:32.782Z,21.60
2019-06-15T05:55:59.902Z,21.80
2019-06-15T05:58:29.816Z,21.90
2019-06-15T06:00:56.882Z,22.00
2019-06-15T06:03:23.949Z,22.20
2019-06-15T06:05:50.472Z,22.40
2019-06-15T06:08:17.292Z,22.40
2019-06-15T06:10:44.237Z,22.40
2019-06-15T06:13:10.477Z,22.60
2019-06-15T06:15:36.918Z,22.60
2019-06-15T06:18:03.849Z,22.70
2019-06-15T06:20:31.208Z,22.70
2019-06-15T06:22:58.643Z,22.70
2019-06-15T06:25:28.898Z,22.70
2019-06-15T06:27:56.082Z,22.80
2019-06-15T06:30:23.260Z,22.90
2019-06-15T06:32:52.142Z,22.80
2019-06-15T06:35:18.904Z,22.90
2019-06-15T06:37:45.293Z,23.00
2019-06-15T06:40:12.920Z,22.80
2019-06-15T06:42:39.439Z,22.80
2019-06-15T06:45:08.447Z,22.70
2019-06-15T06:47:34.794Z,22.70
2019-06-15T06:50:01.918Z,22.60
2019-06-15T06:52:28.758Z,22.50
2019-06-15T06:54:57.713Z,22.60
2019-06-15T06:57:23.966Z,22.70
2019-06-15T06:59:50.223Z,22.80
2019-06-15T07:02:16.488Z,22.70
2019-06-15T07:04:42.796Z,22.70
2019-06-15T07:07:09.101Z,22.70
2019-06-15T07:09:35.332Z,22.60
2019-06-15T07:12:01.592Z,22.70
2019-06-15T07:14:27.889Z,22.90
2019-06-15T07:16:54.255Z,23.00
2019-06-15T07:19:20.510Z,22.90
2019-06-15T07:21:46.726Z,22.90
2019-06-15T07:24:12.926Z,23.00
2019-06-15T07:26:39.302Z,23.00
2019-06-15T07:29:05.569Z,22.90
2019-06-15T07:31:31.959Z,22.90
2019-06-15T07:33:58.237Z,23.00
2019-06-15T07:36:24.470Z,23.00
2019-06-15T07:38:50.703Z,22.80
2019-06-15T07:41:17.119Z,22.70
2019-06-15T07:43:43.349Z,22.60
2019-06-15T07:46:09.706Z,22.70
2019-06-15T07:48:35.932Z,22.80
2019-06-15T07:51:02.304Z,22.70
2019-06-15T07:53:28.663Z,22.80
2019-06-15T07:55:54.909Z,22.90
2019-06-15T07:58:24.857Z,22.70
2019-06-15T08:00:49.461Z,22.90
2019-06-15T08:03:15.752Z,23.10
2019-06-15T08:05:41.993Z,23.30
2019-06-15T08:08:08.131Z,23.50
2019-06-15T08:10:34.457Z,23.60
2019-06-15T08:13:00.685Z,23.40
2019-06-15T08:15:26.884Z,23.70
2019-06-15T08:17:53.262Z,23.80
2019-06-15T08:20:29.549Z,23.90
2019-06-15T08:22:55.779Z,24.00
2019-06-15T08:25:21.960Z,24.20
2019-06-15T08:28:08.180Z,23.80
2019-06-15T08:30:41.018Z,23.90
2019-06-15T08:33:07.266Z,23.80
2019-06-15T08:35:33.422Z,23.70
2019-06-15T08:37:59.611Z,23.60
2019-06-15T08:40:25.991Z,23.80
2019-06-15T08:42:52.228Z,24.00
2019-06-15T08:45:18.595Z,23.90
2019-06-15T08:47:45.211Z,24.10
2019-06-15T08:50:12.128Z,24.00
2019-06-15T08:52:38.502Z,23.90
2019-06-15T08:55:05.248Z,24.20
2019-06-15T08:57:31.569Z,24.50
2019-06-15T08:59:58.386Z,24.60
2019-06-15T09:02:25.023Z,24.70
2019-06-15T09:04:51.194Z,24.80
2019-06-15T09:07:17.426Z,24.80
2019-06-15T09:09:43.728Z,24.80
2019-06-15T09:12:09.960Z,24.60
2019-06-15T09:14:36.174Z,24.60
2019-06-15T09:17:02.688Z,24.60
2019-06-15T09:19:28.946Z,24.60
2019-06-15T09:21:55.363Z,24.50
2019-06-15T09:24:21.670Z,24.60
2019-06-15T09:26:48.184Z,24.70
2019-06-15T09:29:14.465Z,24.80
2019-06-15T09:31:40.760Z,25.00
2019-06-15T09:34:18.485Z,24.90
2019-06-15T09:36:35.318Z,25.00
2019-06-15T09:39:01.707Z,25.00
2019-06-15T09:41:28.156Z,25.10
2019-06-15T09:43:54.556Z,25.30
2019-06-15T09:46:20.939Z,25.20
2019-06-15T09:48:47.192Z,25.30
2019-06-15T09:51:13.513Z,25.40
2019-06-15T09:53:39.836Z,25.50
2019-06-15T09:56:06.448Z,25.80
2019-06-15T09:58:32.742Z,25.90
2019-06-15T10:00:59.020Z,25.80
2019-06-15T10:03:25.358Z,26.00
2019-06-15T10:05:52.057Z,25.90
2019-06-15T10:08:18.414Z,25.60
2019-06-15T10:10:44.745Z,25.40
2019-06-15T10:13:11.198Z,25.30
2019-06-15T10:15:37.652Z,25.20
2019-06-15T10:18:03.915Z,25.60
2019-06-15T10:20:30.425Z,25.60
2019-06-15T10:22:56.754Z,25.60
2019-06-15T10:25:23.001Z,25.60
2019-06-15T10:27:49.382Z,25.70
2019-06-15T10:30:16.194Z,25.60
2019-06-15T10:32:42.432Z,25.60
2019-06-15T10:35:10.063Z,25.70
2019-06-15T10:37:36.399Z,25.80
2019-06-15T10:40:07.958Z,26.00
2019-06-15T10:42:34.418Z,25.60
2019-06-15T10:45:00.799Z,25.30
2019-06-15T10:47:27.098Z,25.10
2019-06-15T10:49:53.370Z,25.20
2019-06-15T10:52:19.730Z,25.60
2019-06-15T10:54:45.967Z,25.50
2019-06-15T10:57:12.237Z,25.50
2019-06-15T10:59:38.531Z,25.40
2019-06-15T11:02:04.885Z,25.50
2019-06-15T11:04:31.209Z,24.80
2019-06-15T11:06:58.366Z,24.80
2019-06-15T11:09:24.835Z,25.00
2019-06-15T11:11:51.771Z,25.00
2019-06-15T11:14:18.071Z,25.10
2019-06-15T11:16:44.645Z,25.10
2019-06-15T11:19:11.007Z,25.00
2019-06-15T11:21:37.276Z,25.20
2019-06-15T11:24:03.737Z,25.00
2019-06-15T11:26:30.179Z,25.00
2019-06-15T11:28:56.697Z,24.70
2019-06-15T11:31:22.945Z,24.60
2019-06-15T11:33:49.362Z,24.60
2019-06-15T11:36:15.787Z,24.70
2019-06-15T11:38:42.278Z,24.60
2019-06-15T11:41:08.905Z,24.50
2019-06-15T11:43:35.215Z,24.50
2019-06-15T11:46:01.835Z,24.50
2019-06-15T11:48:28.073Z,24.80
2019-06-15T11:50:54.463Z,25.30
2019-06-15T11:53:20.824Z,25.20
2019-06-15T11:55:47.227Z,25.30
2019-06-15T11:58:13.579Z,25.60
2019-06-15T12:00:40.579Z,25.60
2019-06-15T12:03:07.009Z,25.80
2019-06-15T12:05:33.387Z,25.70
2019-06-15T12:07:59.812Z,25.60
2019-06-15T12:10:26.248Z,24.80
2019-06-15T12:12:52.642Z,24.80
2019-06-15T12:15:19.204Z,24.90
2019-06-15T12:17:45.430Z,25.00
2019-06-15T12:20:12.039Z,25.30
2019-06-15T12:22:38.400Z,25.20
2019-06-15T12:25:05.348Z,24.80
2019-06-15T12:27:31.740Z,25.00
2019-06-15T12:29:58.281Z,24.80
2019-06-15T12:32:24.601Z,25.00
2019-06-15T12:34:50.989Z,25.10
2019-06-15T12:37:17.428Z,25.10
2019-06-15T12:39:43.794Z,25.00
2019-06-15T12:42:10.146Z,25.10
2019-06-15T12:44:36.496Z,25.00
2019-06-15T12:47:02.843Z,24.90
2019-06-15T12:49:29.000Z,24.70
2019-06-15T12:51:55.261Z,25.00
2019-06-15T12:54:21.521Z,24.90
2019-06-15T12:56:47.750Z,24.30
2019-06-15T12:59:14.015Z,24.60
2019-06-15T13:01:40.528Z,24.90
2019-06-15T13:04:06.878Z,24.90
2019-06-15T13:06:33.294Z,25.00
2019-06-15T13:08:59.508Z,25.10
2019-06-15T13:11:25.929Z,25.00
2019-06-15T13:13:52.173Z,25.20
2019-06-15T13:16:18.566Z,25.40
2019-06-15T13:18:44.798Z,25.70
2019-06-15T13:21:11.049Z,25.70
2019-06-15T13:23:37.234Z,25.30
2019-06-15T13:26:03.699Z,25.50
2019-06-15T13:28:29.876Z,25.30
2019-06-15T13:30:56.289Z,25.20
2019-06-15T13:33:22.676Z,25.20
2019-06-15T13:35:48.825Z,25.00
2019-06-15T13:38:15.162Z,25.10
2019-06-15T13:40:41.563Z,25.20
2019-06-15T13:43:07.837Z,25.20
2019-06-15T13:45:34.103Z,25.10
2019-06-15T13:48:01.239Z,25.00
2019-06-15T13:50:27.613Z,25.10
2019-06-15T13:52:53.977Z,25.40
2019-06-15T13:55:22.011Z,25.30
2019-06-15T13:57:48.540Z,25.00
2019-06-15T14:00:16.841Z,25.00
2019-06-15T14:02:43.316Z,25.10
2019-06-15T14:05:09.673Z,25.10
2019-06-15T14:07:36.018Z,25.20
2019-06-15T14:10:05.416Z,25.10
2019-06-15T14:12:31.587Z,25.10
2019-06-15T14:14:57.847Z,25.00
2019-06-15T14:17:24.644Z,24.90
2019-06-15T14:19:51.671Z,25.00
2019-06-15T14:22:18.537Z,25.20
2019-06-15T14:24:45.311Z,25.30
2019-06-15T14:27:12.206Z,25.00
2019-06-15T14:29:39.158Z,25.00
2019-06-15T14:32:06.076Z,25.30
2019-06-15T14:34:32.942Z,25.30
2019-06-15T14:36:59.462Z,25.30
2019-06-15T14:39:25.737Z,24.80
2019-06-15T14:41:52.006Z,24.70
2019-06-15T14:44:18.714Z,25.10
2019-06-15T14:46:45.106Z,25.60
2019-06-15T14:49:11.345Z,25.80
2019-06-15T14:51:37.544Z,25.50
2019-06-15T14:54:06.535Z,25.70
2019-06-15T14:56:32.268Z,26.00
2019-06-15T14:58:58.584Z,25.80
2019-06-15T15:01:26.082Z,25.30
2019-06-15T15:03:52.655Z,25.30
2019-06-15T15:06:18.938Z,24.80
2019-06-15T15:08:47.145Z,25.00
2019-06-15T15:11:13.612Z,25.30
2019-06-15T15:13:40.014Z,25.50
2019-06-15T15:16:07.064Z,25.50
2019-06-15T15:18:33.568Z,25.60
2019-06-15T15:20:59.951Z,25.30
2019-06-15T15:23:26.294Z,25.10
2019-06-15T15:25:52.619Z,25.30
2019-06-15T15:28:18.987Z,25.40
2019-06-15T15:30:45.353Z,25.40
2019-06-15T15:33:11.633Z,25.30
2019-06-15T15:35:37.958Z,25.30
2019-06-15T15:38:06.175Z,25.50
2019-06-15T15:40:32.736Z,25.40
2019-06-15T15:42:58.991Z,25.40
2019-06-15T15:45:26.243Z,25.50
2019-06-15T15:47:52.802Z,25.50
2019-06-15T15:50:19.135Z,25.50
2019-06-15T15:52:46.247Z,25.50
2019-06-15T15:55:17.205Z,25.50
2019-06-15T15:57:42.950Z,25.20
2019-06-15T16:00:13.145Z,25.30
2019-06-15T16:02:51.844Z,24.90
2019-06-15T16:05:07.883Z,25.10
2019-06-15T16:07:36.293Z,25.30
2019-06-15T16:10:06.108Z,25.30
2019-06-15T16:12:32.176Z,25.30
2019-06-15T16:14:58.444Z,25.30
2019-06-15T16:17:26.846Z,25.30
2019-06-15T16:19:52.814Z,25.30
2019-06-15T16:22:19.080Z,25.30
2019-06-15T16:24:47.735Z,25.30
2019-06-15T16:27:15.801Z,25.20
2019-06-15T16:29:41.517Z,25.20
2019-06-15T16:32:07.848Z,25.20
2019-06-15T16:34:36.031Z,25.10
2019-06-15T16:37:02.508Z,25.10
2019-06-15T16:39:28.834Z,25.10
2019-06-15T16:41:56.151Z,25.00
2019-06-15T16:44:22.565Z,25.00
2019-06-15T16:46:48.754Z,25.00
2019-06-15T16:49:18.398Z,24.90
2019-06-15T16:51:43.246Z,24.90
2019-06-15T16:54:09.740Z,24.80
2019-06-15T16:56:36.313Z,24.70
2019-06-15T16:59:03.095Z,24.60
2019-06-15T17:01:29.328Z,24.60
2019-06-15T17:03:56.873Z,24.70
2019-06-15T17:06:23.451Z,24.80
2019-06-15T17:08:49.883Z,24.60
2019-06-15T17:11:17.343Z,24.60
2019-06-15T17:13:44.093Z,24.40
2019-06-15T17:16:10.685Z,24.50
2019-06-15T17:18:36.940Z,24.50
2019-06-15T17:21:03.332Z,24.40
2019-06-15T17:23:29.969Z,24.40
2019-06-15T17:25:56.196Z,24.40
2019-06-15T17:28:22.492Z,24.40
2019-06-15T17:30:48.872Z,24.30
2019-06-15T17:33:16.674Z,24.40
2019-06-15T17:35:58.024Z,24.40
2019-06-15T17:38:11.327Z,24.10
2019-06-15T17:40:37.507Z,24.00
2019-06-15T17:43:03.819Z,24.00
2019-06-15T17:45:30.543Z,24.00
2019-06-15T17:47:57.066Z,24.00
2019-06-15T17:50:30.577Z,23.90
2019-06-15T17:52:56.865Z,23.90
2019-06-15T17:55:30.964Z,24.00
2019-06-15T17:57:57.776Z,24.10
2019-06-15T18:00:34.021Z,24.10
2019-06-15T18:03:00.204Z,24.10
2019-06-15T18:05:27.383Z,24.00
2019-06-15T18:07:53.747Z,24.00
2019-06-15T18:10:20.231Z,24.00
2019-06-15T18:12:46.923Z,24.00
2019-06-15T18:15:13.669Z,24.00
2019-06-15T18:17:39.876Z,24.00
2019-06-15T18:20:06.994Z,24.00
2019-06-15T18:22:33.469Z,24.00
2019-06-15T18:25:00.503Z,24.00
2019-06-15T18:27:27.574Z,23.90
2019-06-15T18:29:54.019Z,23.90
2019-06-15T18:32:20.420Z,23.80
2019-06-15T18:34:46.817Z,23.70
2019-06-15T18:37:13.187Z,23.60
2019-06-15T18:39:39.521Z,23.60
2019-06-15T18:42:07.702Z,23.50
2019-06-15T18:44:36.522Z,23.50
2019-06-15T18:47:02.474Z,23.30
2019-06-15T18:49:28.767Z,23.30
2019-06-15T18:51:56.719Z,23.30
2019-06-15T18:54:23.195Z,23.30
2019-06-15T18:56:49.856Z,23.10
2019-06-15T18:59:16.847Z,23.10
2019-06-15T19:01:43.441Z,23.10
2019-06-15T19:04:23.423Z,23.10
2019-06-15T19:06:37.879Z,23.10
2019-06-15T19:09:07.040Z,23.00
2019-06-15T19:11:33.382Z,23.00
2019-06-15T19:13:59.609Z,22.90
2019-06-15T19:16:25.775Z,22.70
2019-06-15T19:18:51.980Z,22.70
2019-06-15T19:21:18.459Z,22.70
2019-06-15T19:23:46.910Z,22.60
2019-06-15T19:26:13.004Z,22.60
2019-06-15T19:28:39.158Z,22.50
2019-06-15T19:31:06.447Z,22.60
2019-06-15T19:33:33.017Z,22.40
2019-06-15T19:35:59.250Z,22.40
2019-06-15T19:38:27.193Z,22.40
2019-06-15T19:40:56.361Z,22.30
2019-06-15T19:43:21.892Z,22.20
2019-06-15T19:45:48.274Z,22.20
2019-06-15T19:48:17.227Z,22.20
2019-06-15T19:50:46.109Z,22.10
2019-06-15T19:53:11.818Z,22.00
2019-06-15T19:55:39.903Z,21.90
2019-06-15T19:58:07.216Z,21.90
2019-06-15T20:00:36.192Z,21.80
2019-06-15T20:03:06.916Z,21.70
2019-06-15T20:05:32.602Z,21.60
2019-06-15T20:07:58.926Z,21.50
2019-06-15T20:10:26.624Z,21.50
2019-06-15T20:12:53.155Z,21.40
2019-06-15T20:15:19.635Z,21.40
2019-06-15T20:17:46.225Z,21.40
2019-06-15T20:20:13.388Z,21.40
2019-06-15T20:22:39.647Z,21.20
2019-06-15T20:25:06.681Z,21.30
2019-06-15T20:27:33.392Z,21.20
2019-06-15T20:29:59.748Z,21.10
2019-06-15T20:32:26.341Z,21.00
2019-06-15T20:34:52.653Z,21.00
2019-06-15T20:37:18.920Z,21.00
2019-06-15T20:39:46.767Z,21.00
2019-06-15T20:42:13.126Z,21.00
2019-06-15T20:44:39.411Z,21.00
2019-06-15T20:47:06.561Z,21.10
2019-06-15T20:49:32.997Z,21.00
2019-06-15T20:51:59.417Z,21.00
2019-06-15T20:54:25.715Z,21.00
2019-06-15T20:56:52.120Z,21.00
2019-06-15T20:59:18.881Z,20.90
2019-06-15T21:01:45.319Z,20.80
2019-06-15T21:04:11.535Z,20.80
2019-06-15T21:06:37.827Z,20.70
2019-06-15T21:09:06.696Z,20.80
2019-06-15T21:11:36.054Z,20.70
2019-06-15T21:14:01.328Z,20.60
2019-06-15T21:16:27.616Z,20.50
2019-06-15T21:18:56.964Z,20.50
2019-06-15T21:21:23.713Z,20.40
2019-06-15T21:23:50.020Z,20.40
2019-06-15T21:26:16.548Z,20.50
2019-06-15T21:28:42.997Z,20.60
2019-06-15T21:31:09.291Z,20.50
2019-06-15T21:33:36.052Z,20.50
2019-06-15T21:36:02.772Z,20.50
2019-06-15T21:38:29.089Z,20.40
2019-06-15T21:40:57.063Z,20.40
2019-06-15T21:43:23.552Z,20.40
2019-06-15T21:45:49.753Z,20.30
2019-06-15T21:48:15.961Z,20.30
2019-06-15T21:50:42.304Z,20.30
2019-06-15T21:53:08.685Z,20.30
2019-06-15T21:55:36.432Z,20.30
2019-06-15T21:58:03.223Z,20.40
2019-06-15T22:00:44.191Z,20.40
2019-06-15T22:03:10.709Z,20.30
2019-06-15T22:05:37.111Z,20.30
2019-06-15T22:08:06.258Z,20.30
2019-06-15T22:10:32.484Z,20.20
2019-06-15T22:12:58.646Z,20.20
2019-06-15T22:15:26.550Z,20.20
2019-06-15T22:17:53.045Z,20.20
2019-06-15T22:20:19.393Z,20.30
2019-06-15T22:22:47.005Z,20.30
2019-06-15T22:25:15.842Z,20.40
2019-06-15T22:27:41.839Z,20.40
2019-06-15T22:30:08.933Z,20.40
2019-06-15T22:32:35.450Z,20.40
2019-06-15T22:35:03.779Z,20.40
2019-06-15T22:37:30.041Z,20.50
2019-06-15T22:39:56.346Z,20.60
2019-06-15T22:42:22.659Z,20.60
2019-06-15T22:44:48.890Z,20.60
2019-06-15T22:47:16.879Z,20.50
2019-06-15T22:49:43.292Z,20.40
2019-06-15T22:52:09.658Z,20.30
2019-06-15T22:54:37.566Z,20.20
2019-06-15T22:57:06.014Z,20.30
2019-06-15T22:59:32.164Z,20.20
2019-06-15T23:01:58.514Z,20.30
2019-06-15T23:04:26.596Z,20.30
2019-06-15T23:06:52.964Z,20.30
2019-06-15T23:09:19.376Z,20.40
2019-06-15T23:11:46.777Z,20.40
2019-06-15T23:14:13.236Z,20.40
2019-06-15T23:16:39.653Z,20.40
2019-06-15T23:19:07.852Z,20.40
2019-06-15T23:21:34.071Z,20.40
2019-06-15T23:24:00.431Z,20.30
2019-06-15T23:26:26.692Z,20.20
2019-06-15T23:28:53.072Z,20.20
2019-06-15T23:31:19.374Z,20.20
2019-06-15T23:33:46.827Z,20.20
2019-06-15T23:36:18.674Z,20.20
2019-06-15T23:38:46.396Z,20.00
2019-06-15T23:41:12.878Z,20.00
2019-06-15T23:43:39.201Z,19.90
2019-06-15T23:46:06.727Z,19.90
2019-06-15T23:48:33.129Z,19.90
2019-06-15T23:50:59.501Z,19.70
2019-06-15T23:53:26.121Z,19.60
2019-06-15T23:55:52.528Z,19.50
2019-06-15T23:58:18.764Z,19.50
